Portada
METAR-TAF:

METAR-TAF

Aeroports :

Juigalpa, Nicaragua

latitud: 12-06N, longitud: 085-22W, altitud: 90 m

Observació

L'informe es va fer fa 48 minuts, a les 19:00 UTC
Vent 6 kt del Est
Temperatura 33°C
Humitat 49%
Pressió 1009 hPa
Visibilitat 10 km o més
Núvols disperses a una alçada de 2000 ft

METAR: MNJU 291900Z 09006KT 9999 SCT020 33/21 Q1009

Hora: 13:48 (19:48 UTC)


TAF: manca

Observacions i pronòstics meteorològics de més de 4000 aeroports (METAR i TAF).

Les estacions disponibles són els punts grocs i vermells al mapa.

Posi el ratolí al punt desitjat per veure el nom de l'estació.

Feu clic per veure les observacions i els pronòstics meteorològics.

Per canviar el mapa: feu clic els botons verds amb una creu de color negre per apropar; al botó verd amb un guió per allunyar la imatge; o en les fletxes verdes per a mapes adjacents.


METAR-TAF: